PWSweather.com
Personal Weather Stations
Station Observations
MENWDWX1
Menstrie, ScotlandGB

MenstrieScotlandGB

Lat: 56.148322, Lon: -3.85483

Elevation: 62

Station Type: Davis Vantage Pro 2

High Low Average
Temperature 43.3°F6.3°C 38.2°F3.4°C 41.2°F5.1°C
Dew Point 36.5°F2.5°C 31.6°F-0.2°C 34.6°F1.4°C
Winds 17.3 mph 27.8 kmh Calm Calm 6.0 mph WSW9.7 kmh WSW
Wind Gusts 25.3 mph40.7 kmh -- 10.0 mph16.1 kmh
Humidity 79% 76% 77%
Pressure 30.25 in1024.4 mb 29.46 in997.6 mb -
Precipitation 0.07 in1.8 mm - -
Hour Temp Dew Point Humidity Winds Wind Gusts Pressure Precip Precip Rate Daily Precip Total
12:00 AM 38.2°F3.4°C 31.6°F-0.2°C 77% 3.5 mph WSW5.6 kmh WSW 4.6 mph7.4 kmh 30.24 in1024.0 mb - 0.00 in0.0 mm 0.00 in0.0 mm
12:05 AM 38.5°F3.6°C 31.9°F-0.1°C 77% 6.9 mph SW11.1 kmh SW 10.4 mph16.7 kmh 30.24 in1024.0 mb - 0.00 in0.0 mm 0.00 in0.0 mm
12:10 AM 38.8°F3.8°C 32.2°F0.1°C 77% 5.8 mph WSW9.3 kmh WSW 6.9 mph11.1 kmh 30.24 in1024.0 mb - 0.00 in0.0 mm 0.00 in0.0 mm
12:15 AM 39.0°F3.9°C 32.4°F0.2°C 77% 2.3 mph WSW3.7 kmh WSW 3.5 mph5.6 kmh 30.24 in1024.0 mb - 0.00 in0.0 mm 0.00 in0.0 mm
12:20 AM 39.0°F3.9°C 32.4°F0.2°C 77% 1.2 mph WSW1.9 kmh WSW 3.5 mph5.6 kmh 30.24 in1024.0 mb - 0.00 in0.0 mm 0.00 in0.0 mm
12:25 AM 38.9°F3.8°C 32.3°F0.2°C 77% Calm Calm 1.2 mph1.9 kmh 30.24 in1024.0 mb - 0.00 in0.0 mm 0.00 in0.0 mm
12:30 AM 38.8°F3.8°C 32.2°F0.1°C 77% Calm Calm 1.2 mph1.9 kmh 30.24 in1024.0 mb - 0.00 in0.0 mm 0.00 in0.0 mm
12:35 AM 38.7°F3.7°C 32.1°F0.1°C 77% 1.2 mph WSW1.9 kmh WSW 2.3 mph3.7 kmh 30.25 in1024.4 mb - 0.00 in0.0 mm 0.00 in0.0 mm
12:40 AM 38.6°F3.7°C 32.0°F0.0°C 77% 1.2 mph W1.9 kmh W 2.3 mph3.7 kmh 30.24 in1024.0 mb - 0.00 in0.0 mm 0.00 in0.0 mm
12:45 AM 38.6°F3.7°C 32.0°F0.0°C 77% 1.2 mph W1.9 kmh W 2.3 mph3.7 kmh 30.24 in1024.0 mb - 0.00 in0.0 mm 0.00 in0.0 mm
12:50 AM 38.7°F3.7°C 32.1°F0.1°C 77% 2.3 mph W3.7 kmh W 3.5 mph5.6 kmh 30.24 in1024.0 mb - 0.00 in0.0 mm 0.00 in0.0 mm
12:55 AM 38.8°F3.8°C 32.2°F0.1°C 77% 2.3 mph W3.7 kmh W 3.5 mph5.6 kmh 30.24 in1024.0 mb - 0.00 in0.0 mm 0.00 in0.0 mm
01:00 AM 38.9°F3.8°C 32.3°F0.2°C 77% 1.2 mph W1.9 kmh W 2.3 mph3.7 kmh 30.23 in1023.7 mb - 0.00 in0.0 mm 0.00 in0.0 mm
01:05 AM 39.0°F3.9°C 32.4°F0.2°C 77% 2.3 mph W3.7 kmh W 3.5 mph5.6 kmh 30.23 in1023.7 mb - 0.00 in0.0 mm 0.00 in0.0 mm
01:10 AM 39.1°F3.9°C 32.5°F0.3°C 77% 3.5 mph SW5.6 kmh SW 4.6 mph7.4 kmh 30.23 in1023.7 mb - 0.00 in0.0 mm 0.00 in0.0 mm
01:15 AM 39.3°F4.1°C 32.7°F0.4°C 77% 2.3 mph SW3.7 kmh SW 3.5 mph5.6 kmh 30.23 in1023.7 mb - 0.00 in0.0 mm 0.00 in0.0 mm
01:20 AM 39.4°F4.1°C 32.8°F0.4°C 77% 1.2 mph SW1.9 kmh SW 1.2 mph1.9 kmh 30.23 in1023.7 mb - 0.00 in0.0 mm 0.00 in0.0 mm
01:25 AM 39.4°F4.1°C 32.8°F0.4°C 77% 1.2 mph SW1.9 kmh SW 1.2 mph1.9 kmh 30.23 in1023.7 mb - 0.00 in0.0 mm 0.00 in0.0 mm
01:30 AM 39.4°F4.1°C 32.8°F0.4°C 77% 1.2 mph SW1.9 kmh SW 1.2 mph1.9 kmh 30.23 in1023.7 mb - 0.00 in0.0 mm 0.00 in0.0 mm
01:35 AM 39.3°F4.1°C 32.7°F0.4°C 77% Calm Calm -- 30.23 in1023.7 mb - 0.00 in0.0 mm 0.00 in0.0 mm
01:40 AM 39.3°F4.1°C 32.7°F0.4°C 77% 2.3 mph SW3.7 kmh SW 3.5 mph5.6 kmh 30.23 in1023.7 mb - 0.00 in0.0 mm 0.00 in0.0 mm
01:45 AM 39.3°F4.1°C 32.7°F0.4°C 77% 1.2 mph SW1.9 kmh SW 3.5 mph5.6 kmh 30.23 in1023.7 mb - 0.00 in0.0 mm 0.00 in0.0 mm
01:50 AM 39.4°F4.1°C 32.8°F0.4°C 77% 4.6 mph W7.4 kmh W 5.8 mph9.3 kmh 30.23 in1023.7 mb - 0.00 in0.0 mm 0.00 in0.0 mm
01:55 AM 39.6°F4.2°C 33.0°F0.6°C 77% 4.6 mph W7.4 kmh W 6.9 mph11.1 kmh 30.22 in1023.4 mb - 0.00 in0.0 mm 0.00 in0.0 mm
02:00 AM 40.0°F4.4°C 33.4°F0.8°C 77% 4.6 mph WSW7.4 kmh WSW 8.1 mph13.0 kmh 30.22 in1023.4 mb - 0.00 in0.0 mm 0.00 in0.0 mm
02:05 AM 40.2°F4.6°C 33.6°F0.9°C 77% 2.3 mph SW3.7 kmh SW 3.5 mph5.6 kmh 30.22 in1023.4 mb - 0.00 in0.0 mm 0.00 in0.0 mm
02:10 AM 40.2°F4.6°C 33.6°F0.9°C 77% 2.3 mph W3.7 kmh W 3.5 mph5.6 kmh 30.22 in1023.4 mb - 0.00 in0.0 mm 0.00 in0.0 mm
02:15 AM 40.2°F4.6°C 33.6°F0.9°C 77% 3.5 mph SW5.6 kmh SW 4.6 mph7.4 kmh 30.22 in1023.4 mb - 0.00 in0.0 mm 0.00 in0.0 mm
02:20 AM 40.2°F4.6°C 33.6°F0.9°C 77% 2.3 mph WSW3.7 kmh WSW 3.5 mph5.6 kmh 30.21 in1023.0 mb - 0.00 in0.0 mm 0.00 in0.0 mm
02:25 AM 40.2°F4.6°C 33.6°F0.9°C 77% 3.5 mph WSW5.6 kmh WSW 9.2 mph14.8 kmh 30.21 in1023.0 mb - 0.00 in0.0 mm 0.00 in0.0 mm
02:30 AM 40.3°F4.6°C 33.7°F0.9°C 77% 3.5 mph WSW5.6 kmh WSW 6.9 mph11.1 kmh 30.21 in1023.0 mb - 0.00 in0.0 mm 0.00 in0.0 mm
02:35 AM 40.4°F4.7°C 33.8°F1.0°C 77% 4.6 mph W7.4 kmh W 5.8 mph9.3 kmh 30.20 in1022.7 mb - 0.00 in0.0 mm 0.00 in0.0 mm
02:40 AM 40.5°F4.7°C 33.9°F1.1°C 77% 3.5 mph W5.6 kmh W 5.8 mph9.3 kmh 30.20 in1022.7 mb - 0.00 in0.0 mm 0.00 in0.0 mm
02:45 AM 40.5°F4.7°C 34.2°F1.2°C 78% 4.6 mph W7.4 kmh W 5.8 mph9.3 kmh 30.21 in1023.0 mb - 0.00 in0.0 mm 0.00 in0.0 mm
02:50 AM 40.6°F4.8°C 34.3°F1.3°C 78% 4.6 mph W7.4 kmh W 6.9 mph11.1 kmh 30.21 in1023.0 mb - 0.00 in0.0 mm 0.00 in0.0 mm
02:55 AM 40.6°F4.8°C 34.3°F1.3°C 78% 3.5 mph W5.6 kmh W 5.8 mph9.3 kmh 30.20 in1022.7 mb - 0.00 in0.0 mm 0.00 in0.0 mm
03:00 AM 40.7°F4.8°C 34.4°F1.3°C 78% 3.5 mph W5.6 kmh W 5.8 mph9.3 kmh 30.21 in1023.0 mb - 0.00 in0.0 mm 0.00 in0.0 mm
03:05 AM 40.7°F4.8°C 34.4°F1.3°C 78% 3.5 mph W5.6 kmh W 3.5 mph5.6 kmh 30.20 in1022.7 mb - 0.00 in0.0 mm 0.00 in0.0 mm
03:10 AM 40.7°F4.8°C 34.4°F1.3°C 78% 3.5 mph WSW5.6 kmh WSW 5.8 mph9.3 kmh 30.20 in1022.7 mb - 0.01 in0.3 mm 0.01 in0.3 mm
03:15 AM 40.7°F4.8°C 34.4°F1.3°C 78% 5.8 mph W9.3 kmh W 8.1 mph13.0 kmh 30.20 in1022.7 mb - 0.00 in0.0 mm 0.01 in0.3 mm
03:20 AM 40.7°F4.8°C 34.4°F1.3°C 78% 4.6 mph W7.4 kmh W 8.1 mph13.0 kmh 30.20 in1022.7 mb - 0.00 in0.0 mm 0.01 in0.3 mm
03:25 AM 40.7°F4.8°C 34.4°F1.3°C 78% 3.5 mph WNW5.6 kmh WNW 5.8 mph9.3 kmh 30.20 in1022.7 mb - 0.00 in0.0 mm 0.01 in0.3 mm
03:30 AM 40.7°F4.8°C 34.4°F1.3°C 78% 4.6 mph W7.4 kmh W 8.1 mph13.0 kmh 30.19 in1022.4 mb - 0.00 in0.0 mm 0.01 in0.3 mm
03:35 AM 40.7°F4.8°C 34.4°F1.3°C 78% 5.8 mph W9.3 kmh W 6.9 mph11.1 kmh 30.19 in1022.4 mb - 0.00 in0.0 mm 0.01 in0.3 mm
03:40 AM 40.8°F4.9°C 34.2°F1.2°C 77% 3.5 mph WNW5.6 kmh WNW 6.9 mph11.1 kmh 30.19 in1022.4 mb - 0.00 in0.0 mm 0.01 in0.3 mm
03:45 AM 40.9°F4.9°C 34.2°F1.2°C 77% 3.5 mph W5.6 kmh W 11.5 mph18.5 kmh 30.19 in1022.4 mb - 0.00 in0.0 mm 0.01 in0.3 mm
03:50 AM 41.0°F5.0°C 34.3°F1.3°C 77% 8.1 mph W13.0 kmh W 9.2 mph14.8 kmh 30.19 in1022.4 mb - 0.00 in0.0 mm 0.01 in0.3 mm
03:55 AM 41.0°F5.0°C 34.7°F1.5°C 78% 6.9 mph WSW11.1 kmh WSW 11.5 mph18.5 kmh 30.18 in1022.0 mb - 0.00 in0.0 mm 0.01 in0.3 mm
04:00 AM 41.1°F5.1°C 34.5°F1.4°C 77% 9.2 mph WSW14.8 kmh WSW 11.5 mph18.5 kmh 30.18 in1022.0 mb - 0.00 in0.0 mm 0.01 in0.3 mm
04:05 AM 41.3°F5.2°C 34.6°F1.4°C 77% 9.2 mph W14.8 kmh W 10.4 mph16.7 kmh 30.18 in1022.0 mb - 0.00 in0.0 mm 0.01 in0.3 mm
04:10 AM 41.4°F5.2°C 34.7°F1.5°C 77% 8.1 mph W13.0 kmh W 10.4 mph16.7 kmh 30.17 in1021.7 mb - 0.00 in0.0 mm 0.01 in0.3 mm
04:15 AM 41.4°F5.2°C 34.7°F1.5°C 77% 8.1 mph WSW13.0 kmh WSW 13.8 mph22.2 kmh 30.18 in1022.0 mb - 0.00 in0.0 mm 0.01 in0.3 mm
04:20 AM 41.5°F5.3°C 34.8°F1.6°C 77% 9.2 mph WSW14.8 kmh WSW 11.5 mph18.5 kmh 30.17 in1021.7 mb - 0.00 in0.0 mm 0.01 in0.3 mm
04:25 AM 41.6°F5.3°C 34.9°F1.6°C 77% 8.1 mph WSW13.0 kmh WSW 11.5 mph18.5 kmh 30.17 in1021.7 mb - 0.00 in0.0 mm 0.01 in0.3 mm
04:30 AM 41.6°F5.3°C 34.9°F1.6°C 77% 8.1 mph W13.0 kmh W 10.4 mph16.7 kmh 30.16 in1021.3 mb - 0.00 in0.0 mm 0.01 in0.3 mm
04:35 AM 41.6°F5.3°C 34.9°F1.6°C 77% 9.2 mph WSW14.8 kmh WSW 12.7 mph20.4 kmh 30.16 in1021.3 mb - 0.00 in0.0 mm 0.01 in0.3 mm
04:40 AM 41.6°F5.3°C 34.9°F1.6°C 77% 8.1 mph WSW13.0 kmh WSW 10.4 mph16.7 kmh 30.16 in1021.3 mb - 0.00 in0.0 mm 0.01 in0.3 mm
04:45 AM 41.6°F5.3°C 34.9°F1.6°C 77% 5.8 mph WSW9.3 kmh WSW 10.4 mph16.7 kmh 30.16 in1021.3 mb - 0.00 in0.0 mm 0.01 in0.3 mm
04:50 AM 41.7°F5.4°C 35.0°F1.7°C 77% 6.9 mph WSW11.1 kmh WSW 11.5 mph18.5 kmh 30.16 in1021.3 mb - 0.00 in0.0 mm 0.01 in0.3 mm
04:55 AM 41.7°F5.4°C 35.0°F1.7°C 77% 5.8 mph WSW9.3 kmh WSW 9.2 mph14.8 kmh 30.15 in1021.0 mb - 0.00 in0.0 mm 0.01 in0.3 mm
05:00 AM 41.7°F5.4°C 35.0°F1.7°C 77% 6.9 mph WSW11.1 kmh WSW 8.1 mph13.0 kmh 30.16 in1021.3 mb - 0.00 in0.0 mm 0.01 in0.3 mm
05:05 AM 41.7°F5.4°C 35.0°F1.7°C 77% 4.6 mph WSW7.4 kmh WSW 8.1 mph13.0 kmh 30.16 in1021.3 mb - 0.00 in0.0 mm 0.01 in0.3 mm
05:10 AM 41.8°F5.4°C 35.1°F1.7°C 77% 5.8 mph W9.3 kmh W 6.9 mph11.1 kmh 30.16 in1021.3 mb - 0.00 in0.0 mm 0.01 in0.3 mm
05:15 AM 41.8°F5.4°C 35.1°F1.7°C 77% 9.2 mph W14.8 kmh W 13.8 mph22.2 kmh 30.16 in1021.3 mb - 0.00 in0.0 mm 0.01 in0.3 mm
05:20 AM 42.0°F5.6°C 35.3°F1.8°C 77% 3.5 mph WSW5.6 kmh WSW 8.1 mph13.0 kmh 30.16 in1021.3 mb - 0.00 in0.0 mm 0.01 in0.3 mm
05:25 AM 42.1°F5.6°C 35.4°F1.9°C 77% 9.2 mph WSW14.8 kmh WSW 12.7 mph20.4 kmh 30.16 in1021.3 mb - 0.00 in0.0 mm 0.01 in0.3 mm
05:30 AM 42.3°F5.7°C 35.6°F2.0°C 77% 8.1 mph WSW13.0 kmh WSW 12.7 mph20.4 kmh 30.16 in1021.3 mb - 0.00 in0.0 mm 0.01 in0.3 mm
05:35 AM 42.5°F5.8°C 35.8°F2.1°C 77% 9.2 mph WSW14.8 kmh WSW 11.5 mph18.5 kmh 30.15 in1021.0 mb - 0.00 in0.0 mm 0.01 in0.3 mm
05:40 AM 42.6°F5.9°C 35.6°F2.0°C 76% 6.9 mph WSW11.1 kmh WSW 10.4 mph16.7 kmh 30.15 in1021.0 mb - 0.00 in0.0 mm 0.01 in0.3 mm
05:45 AM 42.6°F5.9°C 35.6°F2.0°C 76% 9.2 mph WSW14.8 kmh WSW 13.8 mph22.2 kmh 30.15 in1021.0 mb - 0.00 in0.0 mm 0.01 in0.3 mm
05:50 AM 42.7°F5.9°C 35.7°F2.1°C 76% 8.1 mph WSW13.0 kmh WSW 9.2 mph14.8 kmh 30.15 in1021.0 mb - 0.00 in0.0 mm 0.01 in0.3 mm
05:55 AM 42.8°F6.0°C 35.8°F2.1°C 76% 10.4 mph WSW16.7 kmh WSW 13.8 mph22.2 kmh 30.15 in1021.0 mb - 0.00 in0.0 mm 0.01 in0.3 mm
06:00 AM 42.9°F6.1°C 35.9°F2.2°C 76% 10.4 mph WSW16.7 kmh WSW 12.7 mph20.4 kmh 30.15 in1021.0 mb - 0.00 in0.0 mm 0.01 in0.3 mm
06:05 AM 42.9°F6.1°C 35.9°F2.2°C 76% 5.8 mph WSW9.3 kmh WSW 11.5 mph18.5 kmh 30.14 in1020.7 mb - 0.00 in0.0 mm 0.01 in0.3 mm
06:10 AM 42.8°F6.0°C 35.8°F2.1°C 76% 6.9 mph WSW11.1 kmh WSW 12.7 mph20.4 kmh 30.14 in1020.7 mb - 0.00 in0.0 mm 0.01 in0.3 mm
06:15 AM 42.9°F6.1°C 35.9°F2.2°C 76% 10.4 mph W16.7 kmh W 15.0 mph24.1 kmh 30.15 in1021.0 mb - 0.00 in0.0 mm 0.01 in0.3 mm
06:20 AM 42.9°F6.1°C 35.9°F2.2°C 76% 6.9 mph WSW11.1 kmh WSW 11.5 mph18.5 kmh 30.14 in1020.7 mb - 0.00 in0.0 mm 0.01 in0.3 mm
06:25 AM 42.9°F6.1°C 35.9°F2.2°C 76% 9.2 mph W14.8 kmh W 13.8 mph22.2 kmh 30.14 in1020.7 mb - 0.00 in0.0 mm 0.01 in0.3 mm
06:30 AM 42.8°F6.0°C 35.7°F2.1°C 76% 8.1 mph W13.0 kmh W 9.2 mph14.8 kmh 30.14 in1020.7 mb - 0.00 in0.0 mm 0.01 in0.3 mm
06:35 AM 42.6°F5.9°C 35.9°F2.2°C 77% 6.9 mph W11.1 kmh W 9.2 mph14.8 kmh 30.14 in1020.7 mb - 0.00 in0.0 mm 0.01 in0.3 mm
06:40 AM 42.5°F5.8°C 35.8°F2.1°C 77% 4.6 mph WSW7.4 kmh WSW 9.2 mph14.8 kmh 30.14 in1020.7 mb - 0.00 in0.0 mm 0.01 in0.3 mm
06:45 AM 42.5°F5.8°C 35.8°F2.1°C 77% 6.9 mph W11.1 kmh W 9.2 mph14.8 kmh 30.14 in1020.7 mb - 0.00 in0.0 mm 0.01 in0.3 mm
06:50 AM 42.5°F5.8°C 35.8°F2.1°C 77% 5.8 mph WSW9.3 kmh WSW 8.1 mph13.0 kmh 30.14 in1020.7 mb - 0.00 in0.0 mm 0.01 in0.3 mm
06:55 AM 42.6°F5.9°C 35.9°F2.2°C 77% 8.1 mph WSW13.0 kmh WSW 12.7 mph20.4 kmh 30.13 in1020.3 mb - 0.00 in0.0 mm 0.01 in0.3 mm
07:00 AM 42.7°F5.9°C 36.0°F2.2°C 77% 8.1 mph WSW13.0 kmh WSW 10.4 mph16.7 kmh 30.13 in1020.3 mb - 0.00 in0.0 mm 0.01 in0.3 mm
07:05 AM 42.8°F6.0°C 36.1°F2.3°C 77% 5.8 mph WSW9.3 kmh WSW 8.1 mph13.0 kmh 30.13 in1020.3 mb - 0.00 in0.0 mm 0.01 in0.3 mm
07:10 AM 42.7°F5.9°C 36.0°F2.2°C 77% 8.1 mph SW13.0 kmh SW 11.5 mph18.5 kmh 30.13 in1020.3 mb - 0.00 in0.0 mm 0.01 in0.3 mm
07:15 AM 42.7°F5.9°C 36.0°F2.2°C 77% 8.1 mph WSW13.0 kmh WSW 10.4 mph16.7 kmh 30.13 in1020.3 mb - 0.00 in0.0 mm 0.01 in0.3 mm
07:20 AM 42.7°F5.9°C 36.0°F2.2°C 77% 5.8 mph WSW9.3 kmh WSW 9.2 mph14.8 kmh 30.13 in1020.3 mb - 0.00 in0.0 mm 0.01 in0.3 mm
07:25 AM 42.7°F5.9°C 36.0°F2.2°C 77% 4.6 mph SW7.4 kmh SW 8.1 mph13.0 kmh 30.12 in1020.0 mb - 0.00 in0.0 mm 0.01 in0.3 mm
07:30 AM 42.7°F5.9°C 36.0°F2.2°C 77% 10.4 mph WSW16.7 kmh WSW 15.0 mph24.1 kmh 30.12 in1020.0 mb - 0.00 in0.0 mm 0.01 in0.3 mm
07:35 AM 42.5°F5.8°C 35.8°F2.1°C 77% 6.9 mph WSW11.1 kmh WSW 10.4 mph16.7 kmh 30.12 in1020.0 mb - 0.00 in0.0 mm 0.01 in0.3 mm
07:40 AM 42.4°F5.8°C 35.7°F2.1°C 77% 4.6 mph W7.4 kmh W 6.9 mph11.1 kmh 30.11 in1019.6 mb - 0.00 in0.0 mm 0.01 in0.3 mm
07:45 AM 42.3°F5.7°C 35.6°F2.0°C 77% 3.5 mph WSW5.6 kmh WSW 6.9 mph11.1 kmh 30.11 in1019.6 mb - 0.00 in0.0 mm 0.01 in0.3 mm
07:50 AM 42.3°F5.7°C 35.6°F2.0°C 77% 8.1 mph SW13.0 kmh SW 10.4 mph16.7 kmh 30.11 in1019.6 mb - 0.00 in0.0 mm 0.01 in0.3 mm
07:55 AM 42.4°F5.8°C 35.7°F2.1°C 77% 4.6 mph WSW7.4 kmh WSW 8.1 mph13.0 kmh 30.11 in1019.6 mb - 0.00 in0.0 mm 0.01 in0.3 mm
08:00 AM 42.4°F5.8°C 35.7°F2.1°C 77% 6.9 mph WSW11.1 kmh WSW 11.5 mph18.5 kmh 30.11 in1019.6 mb - 0.00 in0.0 mm 0.01 in0.3 mm
08:05 AM 42.4°F5.8°C 35.7°F2.1°C 77% 6.9 mph SW11.1 kmh SW 11.5 mph18.5 kmh 30.11 in1019.6 mb - 0.00 in0.0 mm 0.01 in0.3 mm
08:10 AM 42.4°F5.8°C 35.7°F2.1°C 77% 6.9 mph WSW11.1 kmh WSW 11.5 mph18.5 kmh 30.11 in1019.6 mb - 0.00 in0.0 mm 0.01 in0.3 mm
08:15 AM 42.5°F5.8°C 35.8°F2.1°C 77% 8.1 mph WSW13.0 kmh WSW 16.1 mph25.9 kmh 30.11 in1019.6 mb - 0.00 in0.0 mm 0.01 in0.3 mm
08:20 AM 42.6°F5.9°C 35.9°F2.2°C 77% 6.9 mph WSW11.1 kmh WSW 11.5 mph18.5 kmh 30.11 in1019.6 mb - 0.00 in0.0 mm 0.01 in0.3 mm
08:25 AM 42.6°F5.9°C 35.9°F2.2°C 77% 8.1 mph SW13.0 kmh SW 15.0 mph24.1 kmh 30.11 in1019.6 mb - 0.00 in0.0 mm 0.01 in0.3 mm
08:30 AM 42.6°F5.9°C 35.9°F2.2°C 77% 6.9 mph SW11.1 kmh SW 11.5 mph18.5 kmh 30.11 in1019.6 mb - 0.00 in0.0 mm 0.01 in0.3 mm
08:35 AM 42.6°F5.9°C 35.9°F2.2°C 77% 8.1 mph WSW13.0 kmh WSW 11.5 mph18.5 kmh 30.11 in1019.6 mb - 0.00 in0.0 mm 0.01 in0.3 mm
08:40 AM 42.6°F5.9°C 35.9°F2.2°C 77% 8.1 mph WSW13.0 kmh WSW 12.7 mph20.4 kmh 30.11 in1019.6 mb - 0.00 in0.0 mm 0.01 in0.3 mm
08:45 AM 42.6°F5.9°C 35.9°F2.2°C 77% 8.1 mph WSW13.0 kmh WSW 10.4 mph16.7 kmh 30.10 in1019.3 mb - 0.00 in0.0 mm 0.01 in0.3 mm
08:50 AM 42.6°F5.9°C 35.9°F2.2°C 77% 5.8 mph SW9.3 kmh SW 8.1 mph13.0 kmh 30.11 in1019.6 mb - 0.00 in0.0 mm 0.01 in0.3 mm
08:55 AM 42.6°F5.9°C 35.9°F2.2°C 77% 10.4 mph SW16.7 kmh SW 13.8 mph22.2 kmh 30.10 in1019.3 mb - 0.00 in0.0 mm 0.01 in0.3 mm
09:00 AM 42.5°F5.8°C 35.8°F2.1°C 77% 11.5 mph SW18.5 kmh SW 16.1 mph25.9 kmh 30.10 in1019.3 mb - 0.00 in0.0 mm 0.01 in0.3 mm
09:05 AM 42.5°F5.8°C 35.8°F2.1°C 77% 8.1 mph SW13.0 kmh SW 12.7 mph20.4 kmh 30.10 in1019.3 mb - 0.00 in0.0 mm 0.01 in0.3 mm
09:10 AM 42.4°F5.8°C 35.7°F2.1°C 77% 9.2 mph SW14.8 kmh SW 10.4 mph16.7 kmh 30.10 in1019.3 mb - 0.00 in0.0 mm 0.01 in0.3 mm
09:15 AM 42.2°F5.7°C 35.5°F1.9°C 77% 8.1 mph SW13.0 kmh SW 9.2 mph14.8 kmh 30.10 in1019.3 mb - 0.00 in0.0 mm 0.01 in0.3 mm
09:20 AM 42.2°F5.7°C 35.5°F1.9°C 77% 8.1 mph WSW13.0 kmh WSW 11.5 mph18.5 kmh 30.10 in1019.3 mb - 0.00 in0.0 mm 0.01 in0.3 mm
09:25 AM 42.4°F5.8°C 35.7°F2.1°C 77% 8.1 mph WSW13.0 kmh WSW 12.7 mph20.4 kmh 30.10 in1019.3 mb - 0.00 in0.0 mm 0.01 in0.3 mm
09:30 AM 42.5°F5.8°C 35.8°F2.1°C 77% 9.2 mph WSW14.8 kmh WSW 11.5 mph18.5 kmh 30.10 in1019.3 mb - 0.00 in0.0 mm 0.01 in0.3 mm
09:35 AM 42.5°F5.8°C 35.8°F2.1°C 77% 8.1 mph WSW13.0 kmh WSW 10.4 mph16.7 kmh 30.09 in1019.0 mb - 0.00 in0.0 mm 0.01 in0.3 mm
09:40 AM 42.6°F5.9°C 35.9°F2.2°C 77% 10.4 mph WSW16.7 kmh WSW 17.3 mph27.8 kmh 30.09 in1019.0 mb - 0.00 in0.0 mm 0.01 in0.3 mm
09:45 AM 42.6°F5.9°C 35.9°F2.2°C 77% 9.2 mph WSW14.8 kmh WSW 13.8 mph22.2 kmh 30.09 in1019.0 mb - 0.00 in0.0 mm 0.01 in0.3 mm
09:50 AM 42.7°F5.9°C 36.0°F2.2°C 77% 8.1 mph SW13.0 kmh SW 12.7 mph20.4 kmh 30.09 in1019.0 mb - 0.00 in0.0 mm 0.01 in0.3 mm
09:55 AM 42.7°F5.9°C 35.7°F2.1°C 76% 8.1 mph SW13.0 kmh SW 16.1 mph25.9 kmh 30.09 in1019.0 mb - 0.00 in0.0 mm 0.01 in0.3 mm
10:00 AM 42.7°F5.9°C 35.7°F2.1°C 76% 6.9 mph SW11.1 kmh SW 11.5 mph18.5 kmh 30.09 in1019.0 mb - 0.00 in0.0 mm 0.01 in0.3 mm
10:05 AM 42.8°F6.0°C 35.8°F2.1°C 76% 10.4 mph WSW16.7 kmh WSW 17.3 mph27.8 kmh 30.09 in1019.0 mb - 0.00 in0.0 mm 0.01 in0.3 mm
10:10 AM 43.0°F6.1°C 36.0°F2.2°C 76% 11.5 mph WSW18.5 kmh WSW 17.3 mph27.8 kmh 30.08 in1018.6 mb - 0.00 in0.0 mm 0.01 in0.3 mm
10:15 AM 43.2°F6.2°C 36.1°F2.3°C 76% 11.5 mph WSW18.5 kmh WSW 15.0 mph24.1 kmh 30.08 in1018.6 mb - 0.00 in0.0 mm 0.01 in0.3 mm
10:20 AM 43.3°F6.3°C 36.2°F2.3°C 76% 10.4 mph SW16.7 kmh SW 12.7 mph20.4 kmh 30.08 in1018.6 mb - 0.00 in0.0 mm 0.01 in0.3 mm
10:25 AM 43.2°F6.2°C 36.1°F2.3°C 76% 11.5 mph SW18.5 kmh SW 11.5 mph18.5 kmh 30.08 in1018.6 mb - 0.00 in0.0 mm 0.01 in0.3 mm
10:30 AM 43.0°F6.1°C 35.9°F2.2°C 76% 6.9 mph SW11.1 kmh SW 15.0 mph24.1 kmh 30.08 in1018.6 mb - 0.00 in0.0 mm 0.01 in0.3 mm
10:35 AM 42.8°F6.0°C 35.8°F2.1°C 76% 8.1 mph SW13.0 kmh SW 16.1 mph25.9 kmh 30.08 in1018.6 mb - 0.00 in0.0 mm 0.01 in0.3 mm
10:40 AM 42.8°F6.0°C 35.8°F2.1°C 76% 8.1 mph SW13.0 kmh SW 11.5 mph18.5 kmh 30.08 in1018.6 mb - 0.00 in0.0 mm 0.01 in0.3 mm
10:45 AM 42.7°F5.9°C 36.0°F2.2°C 77% 9.2 mph SW14.8 kmh SW 11.5 mph18.5 kmh 30.08 in1018.6 mb - 0.00 in0.0 mm 0.01 in0.3 mm
10:50 AM 42.7°F5.9°C 36.0°F2.2°C 77% 8.1 mph SW13.0 kmh SW 10.4 mph16.7 kmh 30.08 in1018.6 mb - 0.00 in0.0 mm 0.01 in0.3 mm
10:55 AM 42.7°F5.9°C 36.0°F2.2°C 77% 8.1 mph SW13.0 kmh SW 13.8 mph22.2 kmh 30.07 in1018.3 mb - 0.00 in0.0 mm 0.01 in0.3 mm
11:00 AM 42.7°F5.9°C 35.7°F2.1°C 76% 11.5 mph SW18.5 kmh SW 17.3 mph27.8 kmh 30.07 in1018.3 mb - 0.00 in0.0 mm 0.01 in0.3 mm
11:05 AM 42.8°F6.0°C 35.8°F2.1°C 76% 6.9 mph SW11.1 kmh SW 12.7 mph20.4 kmh 30.07 in1018.3 mb - 0.00 in0.0 mm 0.01 in0.3 mm
11:10 AM 42.9°F6.1°C 35.9°F2.2°C 76% 9.2 mph SW14.8 kmh SW 11.5 mph18.5 kmh 30.07 in1018.3 mb - 0.00 in0.0 mm 0.01 in0.3 mm
11:15 AM 42.9°F6.1°C 35.9°F2.2°C 76% 6.9 mph WSW11.1 kmh WSW 11.5 mph18.5 kmh 30.07 in1018.3 mb - 0.00 in0.0 mm 0.01 in0.3 mm
11:20 AM 43.0°F6.1°C 36.0°F2.2°C 76% 8.1 mph SW13.0 kmh SW 13.8 mph22.2 kmh 30.07 in1018.3 mb - 0.00 in0.0 mm 0.01 in0.3 mm
11:25 AM 43.1°F6.2°C 36.0°F2.2°C 76% 6.9 mph SW11.1 kmh SW 11.5 mph18.5 kmh 30.07 in1018.3 mb - 0.00 in0.0 mm 0.01 in0.3 mm
11:30 AM 43.1°F6.2°C 36.0°F2.2°C 76% 6.9 mph SW11.1 kmh SW 12.7 mph20.4 kmh 30.06 in1017.9 mb - 0.00 in0.0 mm 0.01 in0.3 mm
11:35 AM 43.1°F6.2°C 36.0°F2.2°C 76% 5.8 mph SW9.3 kmh SW 6.9 mph11.1 kmh 30.06 in1017.9 mb - 0.00 in0.0 mm 0.01 in0.3 mm
11:40 AM 43.1°F6.2°C 36.0°F2.2°C 76% 6.9 mph SW11.1 kmh SW 12.7 mph20.4 kmh 30.06 in1017.9 mb - 0.00 in0.0 mm 0.01 in0.3 mm
11:45 AM 43.2°F6.2°C 36.5°F2.5°C 77% 9.2 mph SW14.8 kmh SW 13.8 mph22.2 kmh 30.06 in1017.9 mb - 0.00 in0.0 mm 0.01 in0.3 mm
11:50 AM 43.2°F6.2°C 36.5°F2.5°C 77% 8.1 mph SW13.0 kmh SW 11.5 mph18.5 kmh 30.05 in1017.6 mb - 0.00 in0.0 mm 0.01 in0.3 mm
11:55 AM 43.3°F6.3°C 36.5°F2.5°C 77% 9.2 mph SW14.8 kmh SW 12.7 mph20.4 kmh 30.05 in1017.6 mb - 0.00 in0.0 mm 0.01 in0.3 mm
12:00 PM 43.1°F6.2°C 36.4°F2.4°C 77% 8.1 mph SW13.0 kmh SW 11.5 mph18.5 kmh 30.05 in1017.6 mb - 0.00 in0.0 mm 0.01 in0.3 mm
12:05 PM 42.8°F6.0°C 36.1°F2.3°C 77% 8.1 mph SW13.0 kmh SW 11.5 mph18.5 kmh 30.04 in1017.3 mb - 0.00 in0.0 mm 0.01 in0.3 mm
12:10 PM 42.7°F5.9°C 36.0°F2.2°C 77% 4.6 mph SW7.4 kmh SW 11.5 mph18.5 kmh 30.04 in1017.3 mb - 0.00 in0.0 mm 0.01 in0.3 mm
12:15 PM 42.5°F5.8°C 35.8°F2.1°C 77% 5.8 mph SW9.3 kmh SW 12.7 mph20.4 kmh 30.04 in1017.3 mb - 0.00 in0.0 mm 0.01 in0.3 mm
12:20 PM 42.5°F5.8°C 35.8°F2.1°C 77% 5.8 mph SW9.3 kmh SW 9.2 mph14.8 kmh 30.03 in1016.9 mb - 0.00 in0.0 mm 0.01 in0.3 mm
12:25 PM 42.5°F5.8°C 35.8°F2.1°C 77% 3.5 mph WSW5.6 kmh WSW 6.9 mph11.1 kmh 30.03 in1016.9 mb - 0.00 in0.0 mm 0.01 in0.3 mm
12:30 PM 42.6°F5.9°C 35.9°F2.2°C 77% 6.9 mph SW11.1 kmh SW 11.5 mph18.5 kmh 30.03 in1016.9 mb - 0.00 in0.0 mm 0.01 in0.3 mm
12:35 PM 42.7°F5.9°C 36.0°F2.2°C 77% 6.9 mph SW11.1 kmh SW 9.2 mph14.8 kmh 30.02 in1016.6 mb - 0.00 in0.0 mm 0.01 in0.3 mm
12:40 PM 42.7°F5.9°C 36.0°F2.2°C 77% 13.8 mph SW22.2 kmh SW 20.7 mph33.3 kmh 30.02 in1016.6 mb - 0.00 in0.0 mm 0.01 in0.3 mm
12:45 PM 42.9°F6.1°C 36.2°F2.3°C 77% 4.6 mph SW7.4 kmh SW 8.1 mph13.0 kmh 30.02 in1016.6 mb - 0.00 in0.0 mm 0.01 in0.3 mm
12:50 PM 42.9°F6.1°C 36.2°F2.3°C 77% 8.1 mph SW13.0 kmh SW 11.5 mph18.5 kmh 30.01 in1016.3 mb - 0.00 in0.0 mm 0.01 in0.3 mm
12:55 PM 42.8°F6.0°C 36.1°F2.3°C 77% 6.9 mph SW11.1 kmh SW 11.5 mph18.5 kmh 30.01 in1016.3 mb - 0.00 in0.0 mm 0.01 in0.3 mm
01:00 PM 42.7°F5.9°C 36.0°F2.2°C 77% 10.4 mph WSW16.7 kmh WSW 15.0 mph24.1 kmh 30.00 in1015.9 mb - 0.00 in0.0 mm 0.01 in0.3 mm
01:05 PM 42.7°F5.9°C 36.0°F2.2°C 77% 6.9 mph WSW11.1 kmh WSW 12.7 mph20.4 kmh 30.00 in1015.9 mb - 0.00 in0.0 mm 0.01 in0.3 mm
01:10 PM 42.7°F5.9°C 36.0°F2.2°C 77% 9.2 mph SW14.8 kmh SW 17.3 mph27.8 kmh 29.99 in1015.6 mb - 0.00 in0.0 mm 0.01 in0.3 mm
01:15 PM 42.9°F6.1°C 35.9°F2.2°C 76% 8.1 mph SW13.0 kmh SW 15.0 mph24.1 kmh 29.99 in1015.6 mb - 0.00 in0.0 mm 0.01 in0.3 mm
01:20 PM 43.1°F6.2°C 36.0°F2.2°C 76% 9.2 mph SW14.8 kmh SW 17.3 mph27.8 kmh 29.98 in1015.2 mb - 0.00 in0.0 mm 0.01 in0.3 mm
01:25 PM 43.1°F6.2°C 36.1°F2.3°C 76% 10.4 mph WSW16.7 kmh WSW 16.1 mph25.9 kmh 29.98 in1015.2 mb - 0.00 in0.0 mm 0.01 in0.3 mm
01:30 PM 43.2°F6.2°C 36.1°F2.3°C 76% 10.4 mph WSW16.7 kmh WSW 13.8 mph22.2 kmh 29.98 in1015.2 mb - 0.00 in0.0 mm 0.01 in0.3 mm
01:35 PM 43.2°F6.2°C 36.1°F2.3°C 76% 9.2 mph SW14.8 kmh SW 12.7 mph20.4 kmh 29.97 in1014.9 mb - 0.00 in0.0 mm 0.01 in0.3 mm
01:40 PM 43.0°F6.1°C 36.0°F2.2°C 76% 11.5 mph SW18.5 kmh SW 20.7 mph33.3 kmh 29.97 in1014.9 mb - 0.00 in0.0 mm 0.01 in0.3 mm
01:45 PM 42.9°F6.1°C 35.9°F2.2°C 76% 10.4 mph SW16.7 kmh SW 18.4 mph29.6 kmh 29.97 in1014.9 mb - 0.00 in0.0 mm 0.01 in0.3 mm
01:50 PM 42.9°F6.1°C 35.9°F2.2°C 76% 6.9 mph WSW11.1 kmh WSW 11.5 mph18.5 kmh 29.97 in1014.9 mb - 0.00 in0.0 mm 0.01 in0.3 mm
01:55 PM 43.0°F6.1°C 36.0°F2.2°C 76% 8.1 mph SW13.0 kmh SW 11.5 mph18.5 kmh 29.96 in1014.6 mb - 0.00 in0.0 mm 0.01 in0.3 mm
02:00 PM 43.0°F6.1°C 36.0°F2.2°C 76% 11.5 mph WSW18.5 kmh WSW 15.0 mph24.1 kmh 29.96 in1014.6 mb - 0.00 in0.0 mm 0.01 in0.3 mm
02:05 PM 43.0°F6.1°C 36.0°F2.2°C 76% 12.7 mph WSW20.4 kmh WSW 19.6 mph31.5 kmh 29.95 in1014.2 mb - 0.00 in0.0 mm 0.01 in0.3 mm
02:10 PM 43.0°F6.1°C 35.9°F2.2°C 76% 8.1 mph WSW13.0 kmh WSW 12.7 mph20.4 kmh 29.95 in1014.2 mb - 0.00 in0.0 mm 0.01 in0.3 mm
02:15 PM 42.9°F6.1°C 35.9°F2.2°C 76% 16.1 mph WSW25.9 kmh WSW 23.0 mph37.0 kmh 29.95 in1014.2 mb - 0.00 in0.0 mm 0.01 in0.3 mm
02:20 PM 42.9°F6.1°C 35.9°F2.2°C 76% 10.4 mph WSW16.7 kmh WSW 18.4 mph29.6 kmh 29.94 in1013.9 mb - 0.00 in0.0 mm 0.01 in0.3 mm
02:25 PM 42.9°F6.1°C 35.9°F2.2°C 76% 11.5 mph SW18.5 kmh SW 24.2 mph38.9 kmh 29.94 in1013.9 mb - 0.00 in0.0 mm 0.01 in0.3 mm
02:30 PM 43.0°F6.1°C 35.9°F2.2°C 76% 12.7 mph WSW20.4 kmh WSW 19.6 mph31.5 kmh 29.93 in1013.5 mb - 0.00 in0.0 mm 0.01 in0.3 mm
02:35 PM 42.9°F6.1°C 35.9°F2.2°C 76% 11.5 mph SW18.5 kmh SW 17.3 mph27.8 kmh 29.93 in1013.5 mb - 0.00 in0.0 mm 0.01 in0.3 mm
02:40 PM 42.9°F6.1°C 35.9°F2.2°C 76% 13.8 mph SW22.2 kmh SW 25.3 mph40.7 kmh 29.93 in1013.5 mb - 0.00 in0.0 mm 0.01 in0.3 mm
02:45 PM 42.9°F6.1°C 35.9°F2.2°C 76% 17.3 mph SW27.8 kmh SW 21.9 mph35.2 kmh 29.92 in1013.2 mb - 0.00 in0.0 mm 0.01 in0.3 mm
02:50 PM 42.9°F6.1°C 35.9°F2.2°C 76% 15.0 mph SW24.1 kmh SW 17.3 mph27.8 kmh 29.92 in1013.2 mb - 0.00 in0.0 mm 0.01 in0.3 mm
02:55 PM 42.9°F6.1°C 35.9°F2.2°C 76% 11.5 mph SW18.5 kmh SW 16.1 mph25.9 kmh 29.92 in1013.2 mb - 0.00 in0.0 mm 0.01 in0.3 mm
03:00 PM 42.8°F6.0°C 35.8°F2.1°C 76% 13.8 mph SW22.2 kmh SW 23.0 mph37.0 kmh 29.92 in1013.2 mb - 0.00 in0.0 mm 0.01 in0.3 mm
03:05 PM 42.8°F6.0°C 35.8°F2.1°C 76% 13.8 mph WSW22.2 kmh WSW 21.9 mph35.2 kmh 29.91 in1012.9 mb - 0.00 in0.0 mm 0.01 in0.3 mm
03:10 PM 42.8°F6.0°C 35.8°F2.1°C 76% 15.0 mph SW24.1 kmh SW 24.2 mph38.9 kmh 29.91 in1012.9 mb - 0.00 in0.0 mm 0.01 in0.3 mm
03:15 PM 42.8°F6.0°C 35.8°F2.1°C 76% 15.0 mph SW24.1 kmh SW 19.6 mph31.5 kmh 29.91 in1012.9 mb - 0.00 in0.0 mm 0.01 in0.3 mm
03:20 PM 42.7°F5.9°C 35.7°F2.1°C 76% 15.0 mph WSW24.1 kmh WSW 18.4 mph29.6 kmh 29.90 in1012.5 mb - 0.00 in0.0 mm 0.01 in0.3 mm
03:25 PM 42.7°F5.9°C 36.0°F2.2°C 77% 16.1 mph SW25.9 kmh SW 21.9 mph35.2 kmh 29.90 in1012.5 mb - 0.00 in0.0 mm 0.01 in0.3 mm
03:30 PM 42.6°F5.9°C 35.9°F2.2°C 77% 13.8 mph SW22.2 kmh SW 19.6 mph31.5 kmh 29.89 in1012.2 mb - 0.00 in0.0 mm 0.01 in0.3 mm
03:35 PM 42.5°F5.8°C 35.8°F2.1°C 77% 15.0 mph SW24.1 kmh SW 19.6 mph31.5 kmh 29.89 in1012.2 mb - 0.00 in0.0 mm 0.01 in0.3 mm
03:40 PM 42.5°F5.8°C 35.8°F2.1°C 77% 15.0 mph SW24.1 kmh SW 20.7 mph33.3 kmh 29.89 in1012.2 mb - 0.00 in0.0 mm 0.01 in0.3 mm
03:45 PM 42.4°F5.8°C 35.7°F2.1°C 77% 12.7 mph SW20.4 kmh SW 17.3 mph27.8 kmh 29.89 in1012.2 mb - 0.00 in0.0 mm 0.01 in0.3 mm
03:50 PM 42.4°F5.8°C 35.7°F2.1°C 77% 13.8 mph SW22.2 kmh SW 20.7 mph33.3 kmh 29.88 in1011.9 mb - 0.00 in0.0 mm 0.01 in0.3 mm
03:55 PM 42.4°F5.8°C 35.7°F2.1°C 77% 13.8 mph SW22.2 kmh SW 19.6 mph31.5 kmh 29.88 in1011.9 mb - 0.00 in0.0 mm 0.01 in0.3 mm
04:00 PM 42.3°F5.7°C 35.6°F2.0°C 77% 11.5 mph SW18.5 kmh SW 19.6 mph31.5 kmh 29.88 in1011.9 mb - 0.00 in0.0 mm 0.01 in0.3 mm
04:05 PM 42.3°F5.7°C 35.6°F2.0°C 77% 9.2 mph SW14.8 kmh SW 16.1 mph25.9 kmh 29.88 in1011.9 mb - 0.00 in0.0 mm 0.01 in0.3 mm
04:10 PM 42.2°F5.7°C 35.5°F1.9°C 77% 12.7 mph WSW20.4 kmh WSW 18.4 mph29.6 kmh 29.87 in1011.5 mb - 0.00 in0.0 mm 0.01 in0.3 mm
04:15 PM 42.1°F5.6°C 35.4°F1.9°C 77% 15.0 mph SW24.1 kmh SW 19.6 mph31.5 kmh 29.87 in1011.5 mb - 0.00 in0.0 mm 0.01 in0.3 mm
04:20 PM 42.0°F5.6°C 35.3°F1.8°C 77% 13.8 mph SW22.2 kmh SW 19.6 mph31.5 kmh 29.87 in1011.5 mb - 0.00 in0.0 mm 0.01 in0.3 mm
04:25 PM 41.8°F5.4°C 35.1°F1.7°C 77% 12.7 mph SW20.4 kmh SW 20.7 mph33.3 kmh 29.87 in1011.5 mb - 0.00 in0.0 mm 0.01 in0.3 mm
04:30 PM 41.7°F5.4°C 35.0°F1.7°C 77% 13.8 mph SW22.2 kmh SW 17.3 mph27.8 kmh 29.86 in1011.2 mb - 0.00 in0.0 mm 0.01 in0.3 mm
04:35 PM 41.5°F5.3°C 34.8°F1.6°C 77% 12.7 mph SW20.4 kmh SW 20.7 mph33.3 kmh 29.86 in1011.2 mb - 0.00 in0.0 mm 0.01 in0.3 mm
04:40 PM 41.3°F5.2°C 34.6°F1.4°C 77% 12.7 mph SW20.4 kmh SW 16.1 mph25.9 kmh 29.86 in1011.2 mb - 0.00 in0.0 mm 0.01 in0.3 mm
04:45 PM 41.1°F5.1°C 34.4°F1.3°C 77% 11.5 mph SW18.5 kmh SW 16.1 mph25.9 kmh 29.86 in1011.2 mb - 0.00 in0.0 mm 0.01 in0.3 mm
04:50 PM 41.0°F5.0°C 34.3°F1.3°C 77% 9.2 mph WSW14.8 kmh WSW 12.7 mph20.4 kmh 29.85 in1010.8 mb - 0.00 in0.0 mm 0.01 in0.3 mm
04:55 PM 40.8°F4.9°C 34.1°F1.2°C 77% 12.7 mph SW20.4 kmh SW 17.3 mph27.8 kmh 29.85 in1010.8 mb - 0.00 in0.0 mm 0.01 in0.3 mm
05:00 PM 40.7°F4.8°C 34.0°F1.1°C 77% 6.9 mph SW11.1 kmh SW 13.8 mph22.2 kmh 29.84 in1010.5 mb - 0.00 in0.0 mm 0.01 in0.3 mm
05:05 PM 40.6°F4.8°C 34.0°F1.1°C 77% 4.6 mph SW7.4 kmh SW 6.9 mph11.1 kmh 29.84 in1010.5 mb - 0.00 in0.0 mm 0.01 in0.3 mm
05:10 PM 40.6°F4.8°C 34.0°F1.1°C 77% 9.2 mph SW14.8 kmh SW 17.3 mph27.8 kmh 29.84 in1010.5 mb - 0.00 in0.0 mm 0.01 in0.3 mm
05:15 PM 40.6°F4.8°C 34.0°F1.1°C 77% 5.8 mph SW9.3 kmh SW 9.2 mph14.8 kmh 29.83 in1010.2 mb - 0.00 in0.0 mm 0.01 in0.3 mm
05:20 PM 40.5°F4.7°C 33.9°F1.1°C 77% 4.6 mph WSW7.4 kmh WSW 16.1 mph25.9 kmh 29.83 in1010.2 mb - 0.00 in0.0 mm 0.01 in0.3 mm
05:25 PM 40.5°F4.7°C 33.9°F1.1°C 77% 3.5 mph SW5.6 kmh SW 5.8 mph9.3 kmh 29.82 in1009.8 mb - 0.00 in0.0 mm 0.01 in0.3 mm
05:30 PM 40.5°F4.7°C 33.8°F1.0°C 77% 4.6 mph SW7.4 kmh SW 6.9 mph11.1 kmh 29.82 in1009.8 mb - 0.01 in0.3 mm 0.02 in0.5 mm
05:35 PM 40.4°F4.7°C 33.8°F1.0°C 77% 8.1 mph SW13.0 kmh SW 16.1 mph25.9 kmh 29.81 in1009.5 mb - 0.00 in0.0 mm 0.02 in0.5 mm
05:40 PM 40.3°F4.6°C 33.6°F0.9°C 77% 4.6 mph WSW7.4 kmh WSW 11.5 mph18.5 kmh 29.81 in1009.5 mb - 0.00 in0.0 mm 0.02 in0.5 mm
05:45 PM 40.1°F4.5°C 33.5°F0.8°C 77% 10.4 mph SW16.7 kmh SW 15.0 mph24.1 kmh 29.81 in1009.5 mb - 0.00 in0.0 mm 0.02 in0.5 mm
05:50 PM 40.0°F4.4°C 33.4°F0.8°C 77% 3.5 mph WSW5.6 kmh WSW 3.5 mph5.6 kmh 29.80 in1009.1 mb - 0.00 in0.0 mm 0.02 in0.5 mm
05:55 PM 39.9°F4.4°C 33.6°F0.9°C 78% 1.2 mph SW1.9 kmh SW 3.5 mph5.6 kmh 29.80 in1009.1 mb - 0.00 in0.0 mm 0.02 in0.5 mm
06:00 PM 39.9°F4.4°C 33.6°F0.9°C 78% 1.2 mph W1.9 kmh W 3.5 mph5.6 kmh 29.80 in1009.1 mb - 0.00 in0.0 mm 0.02 in0.5 mm
06:05 PM 39.8°F4.3°C 33.5°F0.8°C 78% 1.2 mph SW1.9 kmh SW 5.8 mph9.3 kmh 29.80 in1009.1 mb - 0.00 in0.0 mm 0.02 in0.5 mm
06:10 PM 39.8°F4.3°C 33.5°F0.8°C 78% 2.3 mph WSW3.7 kmh WSW 9.2 mph14.8 kmh 29.79 in1008.8 mb - 0.00 in0.0 mm 0.02 in0.5 mm
06:15 PM 39.7°F4.3°C 33.1°F0.6°C 77% 2.3 mph WSW3.7 kmh WSW 3.5 mph5.6 kmh 29.79 in1008.8 mb - 0.00 in0.0 mm 0.02 in0.5 mm
06:20 PM 39.7°F4.3°C 33.1°F0.6°C 77% 3.5 mph WSW5.6 kmh WSW 6.9 mph11.1 kmh 29.78 in1008.5 mb - 0.00 in0.0 mm 0.02 in0.5 mm
06:25 PM 39.6°F4.2°C 33.0°F0.6°C 77% 4.6 mph S7.4 kmh S 8.1 mph13.0 kmh 29.78 in1008.5 mb - 0.00 in0.0 mm 0.02 in0.5 mm
06:30 PM 39.6°F4.2°C 33.0°F0.6°C 77% 2.3 mph SW3.7 kmh SW 4.6 mph7.4 kmh 29.78 in1008.5 mb - 0.00 in0.0 mm 0.02 in0.5 mm
06:35 PM 39.5°F4.2°C 32.9°F0.5°C 77% 4.6 mph WSW7.4 kmh WSW 9.2 mph14.8 kmh 29.77 in1008.1 mb - 0.00 in0.0 mm 0.02 in0.5 mm
06:40 PM 39.4°F4.1°C 33.1°F0.6°C 78% 4.6 mph WSW7.4 kmh WSW 5.8 mph9.3 kmh 29.76 in1007.8 mb - 0.00 in0.0 mm 0.02 in0.5 mm
06:45 PM 39.3°F4.1°C 33.0°F0.6°C 78% 1.2 mph SW1.9 kmh SW 1.2 mph1.9 kmh 29.76 in1007.8 mb - 0.00 in0.0 mm 0.02 in0.5 mm
06:50 PM 39.3°F4.1°C 33.0°F0.6°C 78% 3.5 mph WSW5.6 kmh WSW 8.1 mph13.0 kmh 29.75 in1007.5 mb - 0.00 in0.0 mm 0.02 in0.5 mm
06:55 PM 39.2°F4.0°C 32.9°F0.5°C 78% 5.8 mph SW9.3 kmh SW 8.1 mph13.0 kmh 29.75 in1007.5 mb - 0.00 in0.0 mm 0.02 in0.5 mm
07:00 PM 39.1°F3.9°C 32.8°F0.4°C 78% 3.5 mph WSW5.6 kmh WSW 8.1 mph13.0 kmh 29.75 in1007.5 mb - 0.00 in0.0 mm 0.02 in0.5 mm
07:05 PM 39.1°F3.9°C 32.8°F0.4°C 78% 4.6 mph WSW7.4 kmh WSW 8.1 mph13.0 kmh 29.75 in1007.5 mb - 0.00 in0.0 mm 0.02 in0.5 mm
07:10 PM 39.0°F3.9°C 32.7°F0.4°C 78% 2.3 mph SW3.7 kmh SW 3.5 mph5.6 kmh 29.75 in1007.5 mb - 0.00 in0.0 mm 0.02 in0.5 mm
07:15 PM 39.0°F3.9°C 32.7°F0.4°C 78% 4.6 mph SSW7.4 kmh SSW 9.2 mph14.8 kmh 29.74 in1007.1 mb - 0.00 in0.0 mm 0.02 in0.5 mm
07:20 PM 39.0°F3.9°C 32.7°F0.4°C 78% 2.3 mph W3.7 kmh W 3.5 mph5.6 kmh 29.74 in1007.1 mb - 0.00 in0.0 mm 0.02 in0.5 mm
07:25 PM 39.0°F3.9°C 32.7°F0.4°C 78% 3.5 mph WSW5.6 kmh WSW 8.1 mph13.0 kmh 29.73 in1006.8 mb - 0.00 in0.0 mm 0.02 in0.5 mm
07:30 PM 39.0°F3.9°C 32.7°F0.4°C 78% 3.5 mph WSW5.6 kmh WSW 4.6 mph7.4 kmh 29.73 in1006.8 mb - 0.00 in0.0 mm 0.02 in0.5 mm
07:35 PM 39.0°F3.9°C 32.7°F0.4°C 78% 2.3 mph NW3.7 kmh NW 3.5 mph5.6 kmh 29.73 in1006.8 mb - 0.00 in0.0 mm 0.02 in0.5 mm
07:40 PM 39.0°F3.9°C 32.7°F0.4°C 78% 1.2 mph NW1.9 kmh NW 2.3 mph3.7 kmh 29.72 in1006.4 mb - 0.00 in0.0 mm 0.02 in0.5 mm
07:45 PM 39.0°F3.9°C 32.7°F0.4°C 78% 2.3 mph NW3.7 kmh NW 3.5 mph5.6 kmh 29.72 in1006.4 mb - 0.00 in0.0 mm 0.02 in0.5 mm
07:50 PM 38.9°F3.8°C 32.6°F0.3°C 78% 6.9 mph SSW11.1 kmh SSW 6.9 mph11.1 kmh 29.71 in1006.1 mb - 0.00 in0.0 mm 0.02 in0.5 mm
07:55 PM 39.0°F3.9°C 32.7°F0.4°C 78% 1.2 mph SW1.9 kmh SW 2.3 mph3.7 kmh 29.71 in1006.1 mb - 0.01 in0.3 mm 0.03 in0.8 mm
08:00 PM 38.9°F3.8°C 32.6°F0.3°C 78% 3.5 mph WSW5.6 kmh WSW 5.8 mph9.3 kmh 29.71 in1006.1 mb - 0.00 in0.0 mm 0.03 in0.8 mm
08:05 PM 38.9°F3.8°C 32.6°F0.3°C 78% 1.2 mph SW1.9 kmh SW 1.2 mph1.9 kmh 29.70 in1005.8 mb - 0.00 in0.0 mm 0.03 in0.8 mm
08:10 PM 38.9°F3.8°C 32.6°F0.3°C 78% 3.5 mph W5.6 kmh W 5.8 mph9.3 kmh 29.70 in1005.8 mb - 0.00 in0.0 mm 0.03 in0.8 mm
08:15 PM 38.9°F3.8°C 32.6°F0.3°C 78% 1.2 mph W1.9 kmh W 3.5 mph5.6 kmh 29.69 in1005.4 mb - 0.00 in0.0 mm 0.03 in0.8 mm
08:20 PM 38.9°F3.8°C 32.6°F0.3°C 78% 1.2 mph WSW1.9 kmh WSW 3.5 mph5.6 kmh 29.69 in1005.4 mb - 0.01 in0.3 mm 0.03 in0.8 mm
08:25 PM 38.9°F3.8°C 32.6°F0.3°C 78% 4.6 mph SW7.4 kmh SW 6.9 mph11.1 kmh 29.68 in1005.1 mb - 0.00 in0.0 mm 0.03 in0.8 mm
08:30 PM 38.9°F3.8°C 32.6°F0.3°C 78% 2.3 mph SW3.7 kmh SW 3.5 mph5.6 kmh 29.68 in1005.1 mb - 0.00 in0.0 mm 0.03 in0.8 mm
08:35 PM 38.8°F3.8°C 32.6°F0.3°C 78% 1.2 mph SW1.9 kmh SW 3.5 mph5.6 kmh 29.67 in1004.7 mb - 0.00 in0.0 mm 0.03 in0.8 mm
08:40 PM 38.8°F3.8°C 32.5°F0.3°C 78% 1.2 mph SW1.9 kmh SW 1.2 mph1.9 kmh 29.67 in1004.7 mb - 0.01 in0.3 mm 0.04 in1.0 mm
08:45 PM 38.8°F3.8°C 32.5°F0.3°C 78% 1.2 mph WSW1.9 kmh WSW 3.5 mph5.6 kmh 29.66 in1004.4 mb - 0.00 in0.0 mm 0.04 in1.0 mm
08:50 PM 38.8°F3.8°C 32.5°F0.3°C 78% 2.3 mph SW3.7 kmh SW 3.5 mph5.6 kmh 29.66 in1004.4 mb - 0.01 in0.3 mm 0.05 in1.3 mm
08:55 PM 38.7°F3.7°C 32.4°F0.2°C 78% 1.2 mph SW1.9 kmh SW 3.5 mph5.6 kmh 29.65 in1004.1 mb - 0.00 in0.0 mm 0.05 in1.3 mm
09:00 PM 38.7°F3.7°C 32.4°F0.2°C 78% Calm Calm 3.5 mph5.6 kmh 29.65 in1004.1 mb - 0.00 in0.0 mm 0.05 in1.3 mm
09:05 PM 38.7°F3.7°C 32.4°F0.2°C 78% 2.3 mph WSW3.7 kmh WSW 3.5 mph5.6 kmh 29.64 in1003.7 mb - 0.00 in0.0 mm 0.05 in1.3 mm
09:10 PM 38.6°F3.7°C 32.3°F0.2°C 78% 1.2 mph W1.9 kmh W 2.3 mph3.7 kmh 29.64 in1003.7 mb - 0.00 in0.0 mm 0.05 in1.3 mm
09:15 PM 38.6°F3.7°C 32.3°F0.2°C 78% 1.2 mph WSW1.9 kmh WSW 3.5 mph5.6 kmh 29.64 in1003.7 mb - 0.00 in0.0 mm 0.05 in1.3 mm
09:20 PM 38.6°F3.7°C 32.3°F0.2°C 78% 1.2 mph WSW1.9 kmh WSW 3.5 mph5.6 kmh 29.63 in1003.4 mb - 0.00 in0.0 mm 0.05 in1.3 mm
09:25 PM 38.6°F3.7°C 32.3°F0.2°C 78% 2.3 mph SW3.7 kmh SW 3.5 mph5.6 kmh 29.63 in1003.4 mb - 0.00 in0.0 mm 0.05 in1.3 mm
09:30 PM 38.7°F3.7°C 32.4°F0.2°C 78% 1.2 mph WNW1.9 kmh WNW 3.5 mph5.6 kmh 29.62 in1003.0 mb - 0.00 in0.0 mm 0.05 in1.3 mm
09:35 PM 38.7°F3.7°C 32.4°F0.2°C 78% 3.5 mph WNW5.6 kmh WNW 3.5 mph5.6 kmh 29.62 in1003.0 mb - 0.01 in0.3 mm 0.06 in1.5 mm
09:40 PM 38.7°F3.7°C 32.4°F0.2°C 78% 2.3 mph NW3.7 kmh NW 3.5 mph5.6 kmh 29.61 in1002.7 mb - 0.00 in0.0 mm 0.06 in1.5 mm
09:45 PM 38.7°F3.7°C 32.7°F0.4°C 79% 1.2 mph NW1.9 kmh NW 3.5 mph5.6 kmh 29.61 in1002.7 mb - 0.00 in0.0 mm 0.06 in1.5 mm
09:50 PM 38.7°F3.7°C 32.4°F0.2°C 78% Calm Calm -- 29.60 in1002.4 mb - 0.00 in0.0 mm 0.06 in1.5 mm
09:55 PM 38.7°F3.7°C 32.8°F0.4°C 79% Calm Calm -- 29.60 in1002.4 mb - 0.00 in0.0 mm 0.06 in1.5 mm
10:00 PM 38.8°F3.8°C 32.8°F0.4°C 79% 1.2 mph SSE1.9 kmh SSE 3.5 mph5.6 kmh 29.59 in1002.0 mb - 0.00 in0.0 mm 0.06 in1.5 mm
10:05 PM 39.0°F3.9°C 33.0°F0.6°C 79% 2.3 mph NE3.7 kmh NE 3.5 mph5.6 kmh 29.59 in1002.0 mb - 0.00 in0.0 mm 0.06 in1.5 mm
10:10 PM 39.1°F3.9°C 33.1°F0.6°C 79% 2.3 mph NE3.7 kmh NE 2.3 mph3.7 kmh 29.58 in1001.7 mb - 0.00 in0.0 mm 0.06 in1.5 mm
10:15 PM 39.1°F3.9°C 33.1°F0.6°C 79% 1.2 mph NE1.9 kmh NE 2.3 mph3.7 kmh 29.58 in1001.7 mb - 0.00 in0.0 mm 0.06 in1.5 mm
10:20 PM 39.1°F3.9°C 33.2°F0.7°C 79% 1.2 mph ESE1.9 kmh ESE 2.3 mph3.7 kmh 29.58 in1001.7 mb - 0.00 in0.0 mm 0.06 in1.5 mm
10:25 PM 39.2°F4.0°C 33.2°F0.7°C 79% 3.5 mph E5.6 kmh E 4.6 mph7.4 kmh 29.57 in1001.4 mb - 0.00 in0.0 mm 0.06 in1.5 mm
10:30 PM 39.4°F4.1°C 33.4°F0.8°C 79% 4.6 mph SSW7.4 kmh SSW 10.4 mph16.7 kmh 29.56 in1001.0 mb - 0.00 in0.0 mm 0.06 in1.5 mm
10:35 PM 39.6°F4.2°C 33.6°F0.9°C 79% 1.2 mph SSE1.9 kmh SSE 3.5 mph5.6 kmh 29.56 in1001.0 mb - 0.01 in0.3 mm 0.07 in1.8 mm
10:40 PM 39.7°F4.3°C 33.7°F0.9°C 79% 3.5 mph S5.6 kmh S 4.6 mph7.4 kmh 29.55 in1000.7 mb - 0.00 in0.0 mm 0.07 in1.8 mm
10:45 PM 39.7°F4.3°C 33.4°F0.8°C 78% 2.3 mph SSW3.7 kmh SSW 4.6 mph7.4 kmh 29.54 in1000.3 mb - 0.00 in0.0 mm 0.07 in1.8 mm
10:50 PM 39.8°F4.3°C 33.5°F0.8°C 78% 2.3 mph SW3.7 kmh SW 3.5 mph5.6 kmh 29.54 in1000.3 mb - 0.00 in0.0 mm 0.07 in1.8 mm
10:55 PM 39.9°F4.4°C 33.6°F0.9°C 78% 6.9 mph SW11.1 kmh SW 11.5 mph18.5 kmh 29.53 in1000.0 mb - 0.00 in0.0 mm 0.07 in1.8 mm
11:00 PM 40.1°F4.5°C 33.8°F1.0°C 78% 5.8 mph SW9.3 kmh SW 11.5 mph18.5 kmh 29.53 in1000.0 mb - 0.00 in0.0 mm 0.07 in1.8 mm
11:05 PM 40.2°F4.6°C 33.9°F1.1°C 78% 4.6 mph SW7.4 kmh SW 6.9 mph11.1 kmh 29.53 in1000.0 mb - 0.00 in0.0 mm 0.07 in1.8 mm
11:10 PM 40.3°F4.6°C 34.0°F1.1°C 78% 5.8 mph SW9.3 kmh SW 8.1 mph13.0 kmh 29.52 in999.7 mb - 0.00 in0.0 mm 0.07 in1.8 mm
11:15 PM 40.4°F4.7°C 34.1°F1.2°C 78% 4.6 mph SW7.4 kmh SW 8.1 mph13.0 kmh 29.52 in999.7 mb - 0.00 in0.0 mm 0.07 in1.8 mm
11:20 PM 40.5°F4.7°C 34.5°F1.4°C 79% 2.3 mph SW3.7 kmh SW 4.6 mph7.4 kmh 29.51 in999.3 mb - 0.00 in0.0 mm 0.07 in1.8 mm
11:25 PM 40.6°F4.8°C 34.6°F1.4°C 79% 5.8 mph SSW9.3 kmh SSW 9.2 mph14.8 kmh 29.51 in999.3 mb - 0.00 in0.0 mm 0.07 in1.8 mm
11:30 PM 40.7°F4.8°C 34.7°F1.5°C 79% 1.2 mph SSW1.9 kmh SSW 3.5 mph5.6 kmh 29.50 in999.0 mb - 0.00 in0.0 mm 0.07 in1.8 mm
11:35 PM 40.7°F4.8°C 34.7°F1.5°C 79% 3.5 mph SW5.6 kmh SW 8.1 mph13.0 kmh 29.49 in998.6 mb - 0.00 in0.0 mm 0.07 in1.8 mm
11:40 PM 40.8°F4.9°C 34.8°F1.6°C 79% 2.3 mph SSW3.7 kmh SSW 4.6 mph7.4 kmh 29.48 in998.3 mb - 0.00 in0.0 mm 0.07 in1.8 mm
11:45 PM 40.9°F4.9°C 34.9°F1.6°C 79% 1.2 mph SSW1.9 kmh SSW 2.3 mph3.7 kmh 29.48 in998.3 mb - 0.00 in0.0 mm 0.07 in1.8 mm
11:50 PM 40.9°F4.9°C 34.9°F1.6°C 79% 1.2 mph SSW1.9 kmh SSW 3.5 mph5.6 kmh 29.47 in998.0 mb - 0.00 in0.0 mm 0.07 in1.8 mm
11:55 PM 40.9°F4.9°C 34.9°F1.6°C 79% Calm Calm -- 29.46 in997.6 mb - 0.00 in0.0 mm 0.07 in1.8 mm